Hakodate, Japan
Current Conditions -  °F | °C
As of 8:00 PM on Sunday 25 Jan 2015 (Local Time) from RJCH Reporting Station
Broken Clouds Broken Clouds  
Wind Chill: 29°   Ceiling: 4000
Heat Index: 34°   Visibility: 6mi
Dew Point: 23°   Wind: 6mph
Humidity: 65%   Direction: 20°NNE
Pressure: 30.36"   Gusts: NA
Location:  41.8°N, 140.74°E
Report Text: RJCH 251100Z 02005KT 9999 FEW030 BKN040 01/M05 Q1028
Loading
Personal Weather Stations






























Interactive Weather Map New forecast layout! Learn more

10-Day Weather Forecast

Advertisements
Track Severe Weather on mobile